Página principal
METAR-TAF:

METAR-TAF

Aeroportos :

Aeroporto Internacional de N'Djamena

N'Djamena, Chade

latitude: 12-08N, longitude: 015-02E, altura: 295 m

Observação actual do tempo

O boletim foi feito há 1 hora e 12 minutos, às 22:00 UTC
Vento 6 kt de noroeste
Temperatura 22°C
Humidade 31%
Pressão 1014 hPa
Visibilidade 10 km ou mais
sem nuvens abaixo de 1500 metros e sem cumulonimbus

METAR: FTTJ 142200Z 32006KT CAVOK 22/04 Q1014 NOSIG

Hora: 00:12 (23:12 UTC)

Previsão

O boletim foi feito há 6 horas e 12 minutos, às 17:00 UTC
Previsão válida de 14 às 18 UTC a 15 às 24 UTC
Vento 8 kt de norte
Visibilidade: 8000 m

TAF: FTTJ 141700Z 1418/1524 36008KT 8000 NSC

Observações e previsões do tempo de mais de 4000 aeroportos (mensagens METAR e TAF).

As estações disponíveis são os pontos amarelos e vermelhos sobre o mapa.

Mova o rato sobre o mapa para ver o nome da estação.

Depois clique no ponto para visualizar as observações e previsões meteorológicas.

Para alterar o mapa : clique nos botões verdes com uma cruz preta para aumentar o zoom; no botão verde com uma pitada de zoom; ou nas setas verdes para mapas adjacentes.


METAR-TAF: